Imperial, NE (69033)

8:28 AM MST on January 24, 2017 (GMT -0700)
Imperial Municipal | | Change Station

Elev 3271 ft 40.51 °N, 101.62 °W | Updated 10 minutes ago

Light Freezing Rain
Light Freezing Rain Mist
30 °F
Feels Like 19 °F
N
15
Wind Variable Wind from NNE

Today
High -- | Low -- °F
--% Chance of Precip.
Yesterday
High -- | Low -- °F
Precip. -- in
Pressure 29.53 in
Visibility 0.8 miles
Clouds Overcast 300 ft
Windchill 19 °F
Dew Point 29 °F
Humidity 96%
Rainfall 0.00 in
Snow Depth Not available.
7:02 AM 4:55 PM
Waning Crescent, 11% visible
SPECI KIML 241518Z AUTO 02013KT 3/4SM -FZRA BR OVC003 M01/M02 A2953 RMK AO2 P0000 I1001 T10111017
Pressure 29.53 in
Visibility 0.8 miles
Clouds Overcast 300 ft
Windchill 19 °F
Dew Point 29 °F
Humidity 96%
Rainfall 0.00 in
Snow Depth Not available.
7:02 AM 4:55 PM
Waning Crescent, 11% visible
SPECI KIML 241518Z AUTO 02013KT 3/4SM -FZRA BR OVC003 M01/M02 A2953 RMK AO2 P0000 I1001 T10111017

Get Your Daily Forecast Email!

Thanks for signing up!

Be on the lookout for a verification email in your inbox.

You'll start receiving the daily forecast at 8 AM.

×

10-Day Weather Forecast

Almanac

Astronomy

Jan. 24, 2017 Rise Set
Actual Time
Civil Twilight
Nautical Twilight
Astronomical Twilight
Moon
Length of Visible Light
Length of Day
Tomorrow will be .
, % of the Moon is Illuminated

Today's Extremes

State Highs State Lows

Community

WunderPhotos

Upload Photos

1,962,540 photos uploaded!

WunderBlog® & News

Nearby

Air Quality

  Air Quality AQ Index Pollutant
Not available.

Snow Depth

Station Depth Elevation

Earthquake Activity

City Distance Mag. Time & Date
Minimum magnitude displayed is 2.5.

Coastal Water Temperatures

Place Temperature

Stations

Nearby Weather Stations

Station Location Temp. Windchill Dew Point Humidity Wind Precip. Elev Updated Type
                   

Watches & Warnings

There are currently no watches in effect.